sensor_id;sensor_type;location;lat;lon;timestamp;P1;P2;P0
76238;PMS7003;65043;48.392;-4.472;2024-02-26T00:02:16;1.00;1.00;0.00
76238;PMS7003;65043;48.392;-4.472;2024-02-26T00:04:42;1.00;0.00;0.00
76238;PMS7003;65043;48.392;-4.472;2024-02-26T00:07:08;2.00;2.00;0.00
76238;PMS7003;65043;48.392;-4.472;2024-02-26T00:09:33;3.00;1.50;0.50
76238;PMS7003;65043;48.392;-4.472;2024-02-26T00:12:04;3.75;1.00;0.00
76238;PMS7003;65043;48.392;-4.472;2024-02-26T00:14:30;2.00;0.50;0.00
76238;PMS7003;65043;48.392;-4.472;2024-02-26T00:16:56;1.00;1.00;0.00
76238;PMS7003;65043;48.392;-4.472;2024-02-26T00:19:22;2.25;0.00;0.00
76238;PMS7003;65043;48.392;-4.472;2024-02-26T00:21:47;0.00;0.00;0.00
76238;PMS7003;65043;48.392;-4.472;2024-02-26T00:24:12;2.00;0.50;0.00
76238;PMS7003;65043;48.392;-4.472;2024-02-26T00:26:38;2.25;0.00;0.00
76238;PMS7003;65043;48.392;-4.472;2024-02-26T00:29:04;0.00;0.00;0.00
76238;PMS7003;65043;48.392;-4.472;2024-02-26T00:31:29;0.25;0.25;0.00
76238;PMS7003;65043;48.392;-4.472;2024-02-26T00:33:55;0.75;0.00;0.00
76238;PMS7003;65043;48.392;-4.472;2024-02-26T00:36:21;2.00;0.00;0.00
76238;PMS7003;65043;48.392;-4.472;2024-02-26T00:38:46;2.00;1.00;0.00
76238;PMS7003;65043;48.392;-4.472;2024-02-26T00:41:16;1.00;1.00;0.00
76238;PMS7003;65043;48.392;-4.472;2024-02-26T00:43:41;1.00;0.00;0.00
76238;PMS7003;65043;48.392;-4.472;2024-02-26T00:46:07;2.25;0.25;0.00
76238;PMS7003;65043;48.392;-4.472;2024-02-26T00:48:33;2.25;0.00;0.00
76238;PMS7003;65043;48.392;-4.472;2024-02-26T00:50:59;3.00;1.25;0.00
76238;PMS7003;65043;48.392;-4.472;2024-02-26T00:53:24;3.00;0.00;0.00
76238;PMS7003;65043;48.392;-4.472;2024-02-26T00:55:50;1.50;0.00;0.00
76238;PMS7003;65043;48.392;-4.472;2024-02-26T00:58:16;3.50;1.00;0.00
76238;PMS7003;65043;48.392;-4.472;2024-02-26T01:00:41;3.00;0.75;0.00
76238;PMS7003;65043;48.392;-4.472;2024-02-26T01:03:07;0.75;0.75;0.00
76238;PMS7003;65043;48.392;-4.472;2024-02-26T01:05:32;1.00;1.00;0.00
76238;PMS7003;65043;48.392;-4.472;2024-02-26T01:07:58;2.00;1.75;0.00
76238;PMS7003;65043;48.392;-4.472;2024-02-26T01:10:24;4.50;1.25;0.00
76238;PMS7003;65043;48.392;-4.472;2024-02-26T01:12:49;2.00;2.00;0.75
76238;PMS7003;65043;48.392;-4.472;2024-02-26T01:15:14;3.00;1.75;0.00
76238;PMS7003;65043;48.392;-4.472;2024-02-26T01:17:40;1.00;1.00;0.50
76238;PMS7003;65043;48.392;-4.472;2024-02-26T01:20:06;3.75;2.75;1.00
76238;PMS7003;65043;48.392;-4.472;2024-02-26T01:22:33;0.75;0.75;0.00
76238;PMS7003;65043;48.392;-4.472;2024-02-26T01:24:59;2.25;1.75;1.75
76238;PMS7003;65043;48.392;-4.472;2024-02-26T01:27:25;4.00;4.00;2.25
76238;PMS7003;65043;48.392;-4.472;2024-02-26T01:29:52;6.50;4.75;3.00
76238;PMS7003;65043;48.392;-4.472;2024-02-26T01:32:17;2.75;2.00;1.00
76238;PMS7003;65043;48.392;-4.472;2024-02-26T01:34:43;1.75;1.75;0.00
76238;PMS7003;65043;48.392;-4.472;2024-02-26T01:37:08;0.00;0.00;0.00
76238;PMS7003;65043;48.392;-4.472;2024-02-26T01:39:34;1.25;0.00;0.00
76238;PMS7003;65043;48.392;-4.472;2024-02-26T01:41:59;1.00;1.00;0.00
76238;PMS7003;65043;48.392;-4.472;2024-02-26T01:44:26;2.00;0.00;0.00
76238;PMS7003;65043;48.392;-4.472;2024-02-26T01:46:51;2.00;1.00;0.00
76238;PMS7003;65043;48.392;-4.472;2024-02-26T01:49:18;2.00;1.00;0.00
76238;PMS7003;65043;48.392;-4.472;2024-02-26T01:51:46;1.75;0.00;0.00
76238;PMS7003;65043;48.392;-4.472;2024-02-26T01:54:12;2.25;0.00;0.00
76238;PMS7003;65043;48.392;-4.472;2024-02-26T01:56:38;3.75;1.00;0.00
76238;PMS7003;65043;48.392;-4.472;2024-02-26T01:59:05;1.75;0.00;0.00
76238;PMS7003;65043;48.392;-4.472;2024-02-26T02:01:33;2.50;1.00;0.00
76238;PMS7003;65043;48.392;-4.472;2024-02-26T02:04:00;0.75;0.00;0.00
76238;PMS7003;65043;48.392;-4.472;2024-02-26T02:06:26;1.00;0.00;0.00
76238;PMS7003;65043;48.392;-4.472;2024-02-26T02:08:54;1.00;0.00;0.00
76238;PMS7003;65043;48.392;-4.472;2024-02-26T02:11:19;0.00;0.00;0.00
76238;PMS7003;65043;48.392;-4.472;2024-02-26T02:13:45;0.75;0.00;0.00
76238;PMS7003;65043;48.392;-4.472;2024-02-26T02:16:11;4.75;2.00;0.00
76238;PMS7003;65043;48.392;-4.472;2024-02-26T02:18:37;3.00;1.00;0.00
76238;PMS7003;65043;48.392;-4.472;2024-02-26T02:21:02;1.25;1.00;0.00
76238;PMS7003;65043;48.392;-4.472;2024-02-26T02:23:28;1.75;1.00;0.00
76238;PMS7003;65043;48.392;-4.472;2024-02-26T02:25:54;0.00;0.00;0.00
76238;PMS7003;65043;48.392;-4.472;2024-02-26T02:28:21;2.00;0.00;0.00
76238;PMS7003;65043;48.392;-4.472;2024-02-26T02:30:48;0.00;0.00;0.00
76238;PMS7003;65043;48.392;-4.472;2024-02-26T02:33:16;2.50;0.75;0.00
76238;PMS7003;65043;48.392;-4.472;2024-02-26T02:35:42;1.75;1.75;0.75
76238;PMS7003;65043;48.392;-4.472;2024-02-26T02:38:07;1.75;1.00;0.00
76238;PMS7003;65043;48.392;-4.472;2024-02-26T02:40:33;1.00;1.00;1.00
76238;PMS7003;65043;48.392;-4.472;2024-02-26T02:42:58;1.75;0.50;0.00
76238;PMS7003;65043;48.392;-4.472;2024-02-26T02:45:25;3.50;1.50;0.50
76238;PMS7003;65043;48.392;-4.472;2024-02-26T02:47:50;2.25;1.00;0.00
76238;PMS7003;65043;48.392;-4.472;2024-02-26T02:50:16;0.00;0.00;0.00
76238;PMS7003;65043;48.392;-4.472;2024-02-26T02:52:41;0.75;0.75;0.00
76238;PMS7003;65043;48.392;-4.472;2024-02-26T02:55:07;2.25;1.00;0.00
76238;PMS7003;65043;48.392;-4.472;2024-02-26T02:57:36;1.00;0.00;0.00
76238;PMS7003;65043;48.392;-4.472;2024-02-26T03:00:08;1.50;1.00;0.00
76238;PMS7003;65043;48.392;-4.472;2024-02-26T03:02:34;3.75;1.00;0.75
76238;PMS7003;65043;48.392;-4.472;2024-02-26T03:05:01;3.50;2.50;0.00
76238;PMS7003;65043;48.392;-4.472;2024-02-26T03:07:27;3.50;1.50;0.25
76238;PMS7003;65043;48.392;-4.472;2024-02-26T03:09:53;1.00;1.00;0.75
76238;PMS7003;65043;48.392;-4.472;2024-02-26T03:12:18;3.25;2.25;1.00
76238;PMS7003;65043;48.392;-4.472;2024-02-26T03:14:44;2.25;0.50;0.00
76238;PMS7003;65043;48.392;-4.472;2024-02-26T03:17:09;1.50;1.25;0.50
76238;PMS7003;65043;48.392;-4.472;2024-02-26T03:19:35;2.25;2.00;1.00
76238;PMS7003;65043;48.392;-4.472;2024-02-26T03:22:00;1.00;1.00;0.00
76238;PMS7003;65043;48.392;-4.472;2024-02-26T03:24:26;0.50;0.25;0.00
76238;PMS7003;65043;48.392;-4.472;2024-02-26T03:26:51;3.00;1.75;1.00
76238;PMS7003;65043;48.392;-4.472;2024-02-26T03:29:17;3.50;2.75;1.00
76238;PMS7003;65043;48.392;-4.472;2024-02-26T03:31:42;1.50;1.25;0.75
76238;PMS7003;65043;48.392;-4.472;2024-02-26T03:34:08;1.75;1.75;1.00
76238;PMS7003;65043;48.392;-4.472;2024-02-26T03:36:34;5.00;2.75;1.00
76238;PMS7003;65043;48.392;-4.472;2024-02-26T03:38:59;4.00;3.00;1.75
76238;PMS7003;65043;48.392;-4.472;2024-02-26T03:41:25;4.00;1.25;1.00
76238;PMS7003;65043;48.392;-4.472;2024-02-26T03:43:51;2.50;1.75;0.75
76238;PMS7003;65043;48.392;-4.472;2024-02-26T03:46:16;5.50;2.50;1.00
76238;PMS7003;65043;48.392;-4.472;2024-02-26T03:48:42;1.75;1.75;1.00
76238;PMS7003;65043;48.392;-4.472;2024-02-26T03:51:10;3.75;3.25;1.00
76238;PMS7003;65043;48.392;-4.472;2024-02-26T03:53:36;3.00;2.75;1.00
76238;PMS7003;65043;48.392;-4.472;2024-02-26T03:56:04;6.25;2.00;1.00
76238;PMS7003;65043;48.392;-4.472;2024-02-26T03:58:31;2.00;2.00;1.00
76238;PMS7003;65043;48.392;-4.472;2024-02-26T04:01:00;3.50;1.00;0.00
76238;PMS7003;65043;48.392;-4.472;2024-02-26T04:03:25;1.75;1.00;0.00
76238;PMS7003;65043;48.392;-4.472;2024-02-26T04:05:51;3.50;2.00;1.00
76238;PMS7003;65043;48.392;-4.472;2024-02-26T04:08:16;2.25;2.00;1.00
76238;PMS7003;65043;48.392;-4.472;2024-02-26T04:10:42;3.50;1.50;0.75
76238;PMS7003;65043;48.392;-4.472;2024-02-26T04:13:07;3.25;1.00;1.00
76238;PMS7003;65043;48.392;-4.472;2024-02-26T04:15:34;2.00;1.00;0.50
76238;PMS7003;65043;48.392;-4.472;2024-02-26T04:17:59;3.25;2.75;1.00
76238;PMS7003;65043;48.392;-4.472;2024-02-26T04:20:25;3.75;3.75;1.00
76238;PMS7003;65043;48.392;-4.472;2024-02-26T04:22:50;6.25;2.00;1.00
76238;PMS7003;65043;48.392;-4.472;2024-02-26T04:25:16;3.50;1.25;1.00
76238;PMS7003;65043;48.392;-4.472;2024-02-26T04:27:41;5.25;1.75;1.00
76238;PMS7003;65043;48.392;-4.472;2024-02-26T04:30:07;3.75;2.00;1.00
76238;PMS7003;65043;48.392;-4.472;2024-02-26T04:32:33;1.50;1.25;1.00
76238;PMS7003;65043;48.392;-4.472;2024-02-26T04:34:59;11.50;2.50;1.00
76238;PMS7003;65043;48.392;-4.472;2024-02-26T04:37:26;4.25;3.00;1.00
76238;PMS7003;65043;48.392;-4.472;2024-02-26T04:39:57;3.25;2.00;0.75
76238;PMS7003;65043;48.392;-4.472;2024-02-26T04:42:23;1.25;1.25;0.75
76238;PMS7003;65043;48.392;-4.472;2024-02-26T04:44:49;2.00;0.75;0.25
76238;PMS7003;65043;48.392;-4.472;2024-02-26T04:47:14;4.50;2.75;0.75
76238;PMS7003;65043;48.392;-4.472;2024-02-26T04:49:40;4.00;2.50;1.00
76238;PMS7003;65043;48.392;-4.472;2024-02-26T04:52:06;3.50;2.00;1.00
76238;PMS7003;65043;48.392;-4.472;2024-02-26T04:54:31;2.25;2.00;1.00
76238;PMS7003;65043;48.392;-4.472;2024-02-26T04:56:57;5.00;1.50;1.00
76238;PMS7003;65043;48.392;-4.472;2024-02-26T04:59:22;1.50;1.50;1.00
76238;PMS7003;65043;48.392;-4.472;2024-02-26T05:01:48;4.00;3.25;1.00
76238;PMS7003;65043;48.392;-4.472;2024-02-26T05:04:13;2.00;2.00;1.00
76238;PMS7003;65043;48.392;-4.472;2024-02-26T05:06:38;2.00;2.00;1.00
76238;PMS7003;65043;48.392;-4.472;2024-02-26T05:09:04;3.75;3.00;1.00
76238;PMS7003;65043;48.392;-4.472;2024-02-26T05:11:29;3.25;3.00;1.00
76238;PMS7003;65043;48.392;-4.472;2024-02-26T05:13:55;6.25;3.75;1.00
76238;PMS7003;65043;48.392;-4.472;2024-02-26T05:16:20;5.00;3.50;1.25
76238;PMS7003;65043;48.392;-4.472;2024-02-26T05:18:49;5.50;1.75;1.00
76238;PMS7003;65043;48.392;-4.472;2024-02-26T05:21:15;9.00;2.50;2.00
76238;PMS7003;65043;48.392;-4.472;2024-02-26T05:23:40;3.25;2.50;1.25
76238;PMS7003;65043;48.392;-4.472;2024-02-26T05:26:08;4.00;2.25;1.00
76238;PMS7003;65043;48.392;-4.472;2024-02-26T05:28:34;6.00;4.00;2.75
76238;PMS7003;65043;48.392;-4.472;2024-02-26T05:31:01;2.25;1.25;1.00
76238;PMS7003;65043;48.392;-4.472;2024-02-26T05:33:28;7.00;3.75;1.50
76238;PMS7003;65043;48.392;-4.472;2024-02-26T05:35:53;5.75;2.25;1.00
76238;PMS7003;65043;48.392;-4.472;2024-02-26T05:38:19;4.75;1.50;0.75
76238;PMS7003;65043;48.392;-4.472;2024-02-26T05:40:45;5.00;4.00;2.00
76238;PMS7003;65043;48.392;-4.472;2024-02-26T05:43:11;5.75;4.00;2.25
76238;PMS7003;65043;48.392;-4.472;2024-02-26T05:45:36;5.25;4.00;1.00
76238;PMS7003;65043;48.392;-4.472;2024-02-26T05:48:02;9.75;2.00;1.00
76238;PMS7003;65043;48.392;-4.472;2024-02-26T05:50:28;4.75;2.50;1.00
76238;PMS7003;65043;48.392;-4.472;2024-02-26T05:52:53;5.00;3.50;1.50
76238;PMS7003;65043;48.392;-4.472;2024-02-26T05:55:19;4.00;2.50;2.00
76238;PMS7003;65043;48.392;-4.472;2024-02-26T05:57:44;4.00;3.25;2.00
76238;PMS7003;65043;48.392;-4.472;2024-02-26T06:00:10;2.75;2.25;1.75
76238;PMS7003;65043;48.392;-4.472;2024-02-26T06:02:37;8.50;4.25;2.00
76238;PMS7003;65043;48.392;-4.472;2024-02-26T06:05:03;3.00;2.00;1.00
76238;PMS7003;65043;48.392;-4.472;2024-02-26T06:07:29;5.00;3.75;2.00
76238;PMS7003;65043;48.392;-4.472;2024-02-26T06:09:55;3.00;1.75;1.00
76238;PMS7003;65043;48.392;-4.472;2024-02-26T06:12:20;5.00;4.25;2.00
76238;PMS7003;65043;48.392;-4.472;2024-02-26T06:14:46;2.50;2.00;1.00
76238;PMS7003;65043;48.392;-4.472;2024-02-26T06:17:12;3.00;3.00;1.75
76238;PMS7003;65043;48.392;-4.472;2024-02-26T06:19:38;5.00;4.00;2.00
76238;PMS7003;65043;48.392;-4.472;2024-02-26T06:22:03;4.50;4.25;2.75
76238;PMS7003;65043;48.392;-4.472;2024-02-26T06:24:29;2.50;2.50;1.50
76238;PMS7003;65043;48.392;-4.472;2024-02-26T06:26:54;5.00;3.00;2.00
76238;PMS7003;65043;48.392;-4.472;2024-02-26T06:29:19;2.25;2.25;1.00
76238;PMS7003;65043;48.392;-4.472;2024-02-26T06:31:45;10.00;3.25;2.00
76238;PMS7003;65043;48.392;-4.472;2024-02-26T06:34:10;3.75;3.00;1.50
76238;PMS7003;65043;48.392;-4.472;2024-02-26T06:36:36;4.50;3.75;2.00
76238;PMS7003;65043;48.392;-4.472;2024-02-26T06:39:02;5.75;3.00;2.00
76238;PMS7003;65043;48.392;-4.472;2024-02-26T06:41:27;11.75;4.00;2.25
76238;PMS7003;65043;48.392;-4.472;2024-02-26T06:43:54;4.00;2.00;1.00
76238;PMS7003;65043;48.392;-4.472;2024-02-26T06:46:20;5.75;2.25;1.25
76238;PMS7003;65043;48.392;-4.472;2024-02-26T06:48:47;5.00;2.75;1.75
76238;PMS7003;65043;48.392;-4.472;2024-02-26T06:51:13;8.00;4.25;2.00
76238;PMS7003;65043;48.392;-4.472;2024-02-26T06:53:39;4.50;2.00;1.00
76238;PMS7003;65043;48.392;-4.472;2024-02-26T06:56:04;7.75;5.25;2.75
76238;PMS7003;65043;48.392;-4.472;2024-02-26T06:58:30;3.25;3.25;2.00
76238;PMS7003;65043;48.392;-4.472;2024-02-26T07:00:55;3.75;3.00;1.75
76238;PMS7003;65043;48.392;-4.472;2024-02-26T07:03:21;3.50;3.50;2.25
76238;PMS7003;65043;48.392;-4.472;2024-02-26T07:05:47;8.00;3.25;1.75
76238;PMS7003;65043;48.392;-4.472;2024-02-26T07:08:13;4.25;4.25;2.00
76238;PMS7003;65043;48.392;-4.472;2024-02-26T07:10:39;3.00;3.00;2.00
76238;PMS7003;65043;48.392;-4.472;2024-02-26T07:13:04;7.00;4.75;3.00
76238;PMS7003;65043;48.392;-4.472;2024-02-26T07:15:30;7.50;3.25;2.00
76238;PMS7003;65043;48.392;-4.472;2024-02-26T07:17:55;3.00;3.00;2.00
76238;PMS7003;65043;48.392;-4.472;2024-02-26T07:20:21;8.75;4.00;3.00
76238;PMS7003;65043;48.392;-4.472;2024-02-26T07:22:46;5.25;3.75;2.00
76238;PMS7003;65043;48.392;-4.472;2024-02-26T07:25:12;7.00;3.00;2.00
76238;PMS7003;65043;48.392;-4.472;2024-02-26T07:27:41;5.75;3.25;2.50
76238;PMS7003;65043;48.392;-4.472;2024-02-26T07:30:07;3.75;3.50;2.25
76238;PMS7003;65043;48.392;-4.472;2024-02-26T07:32:34;8.25;5.50;2.00
76238;PMS7003;65043;48.392;-4.472;2024-02-26T07:34:59;4.50;3.50;2.00
76238;PMS7003;65043;48.392;-4.472;2024-02-26T07:37:25;3.75;2.25;2.00
76238;PMS7003;65043;48.392;-4.472;2024-02-26T07:39:50;4.00;3.75;2.00
76238;PMS7003;65043;48.392;-4.472;2024-02-26T07:42:16;4.50;3.00;2.25
76238;PMS7003;65043;48.392;-4.472;2024-02-26T07:44:41;4.25;3.00;2.00
76238;PMS7003;65043;48.392;-4.472;2024-02-26T07:47:08;7.25;3.75;3.00
76238;PMS7003;65043;48.392;-4.472;2024-02-26T07:49:34;7.00;3.00;2.00
76238;PMS7003;65043;48.392;-4.472;2024-02-26T07:52:00;5.00;2.00;1.00
76238;PMS7003;65043;48.392;-4.472;2024-02-26T07:54:25;4.75;3.00;1.00
76238;PMS7003;65043;48.392;-4.472;2024-02-26T07:56:51;3.75;3.75;2.00
76238;PMS7003;65043;48.392;-4.472;2024-02-26T07:59:16;4.50;2.00;1.50
76238;PMS7003;65043;48.392;-4.472;2024-02-26T08:01:42;4.50;2.75;1.00
76238;PMS7003;65043;48.392;-4.472;2024-02-26T08:04:08;9.00;5.00;2.00
76238;PMS7003;65043;48.392;-4.472;2024-02-26T08:06:34;3.75;3.00;1.00
76238;PMS7003;65043;48.392;-4.472;2024-02-26T08:08:59;4.50;3.50;2.00
76238;PMS7003;65043;48.392;-4.472;2024-02-26T08:11:25;2.25;2.25;1.00
76238;PMS7003;65043;48.392;-4.472;2024-02-26T08:13:50;3.50;2.75;1.25
76238;PMS7003;65043;48.392;-4.472;2024-02-26T08:16:16;3.50;2.00;1.00
76238;PMS7003;65043;48.392;-4.472;2024-02-26T08:18:41;3.50;2.25;1.00
76238;PMS7003;65043;48.392;-4.472;2024-02-26T08:21:07;4.00;2.75;1.00
76238;PMS7003;65043;48.392;-4.472;2024-02-26T08:23:33;3.00;3.00;1.25
76238;PMS7003;65043;48.392;-4.472;2024-02-26T08:25:59;3.00;3.00;1.00
76238;PMS7003;65043;48.392;-4.472;2024-02-26T08:28:24;3.75;3.25;1.50
76238;PMS7003;65043;48.392;-4.472;2024-02-26T08:30:50;6.25;4.25;2.00
76238;PMS7003;65043;48.392;-4.472;2024-02-26T08:33:15;3.00;3.00;1.00
76238;PMS7003;65043;48.392;-4.472;2024-02-26T08:35:41;4.50;2.75;1.00
76238;PMS7003;65043;48.392;-4.472;2024-02-26T08:38:06;5.00;2.00;1.00
76238;PMS7003;65043;48.392;-4.472;2024-02-26T08:40:32;5.00;3.00;2.00
76238;PMS7003;65043;48.392;-4.472;2024-02-26T08:42:57;4.25;2.00;1.00
76238;PMS7003;65043;48.392;-4.472;2024-02-26T08:45:22;3.75;2.75;1.00
76238;PMS7003;65043;48.392;-4.472;2024-02-26T08:47:48;5.25;1.75;1.00
76238;PMS7003;65043;48.392;-4.472;2024-02-26T08:50:13;5.00;3.75;2.00
76238;PMS7003;65043;48.392;-4.472;2024-02-26T08:52:39;7.50;3.00;2.00
76238;PMS7003;65043;48.392;-4.472;2024-02-26T08:55:05;2.00;1.00;1.00
76238;PMS7003;65043;48.392;-4.472;2024-02-26T08:57:33;3.50;3.25;1.00
76238;PMS7003;65043;48.392;-4.472;2024-02-26T08:59:59;2.50;2.00;1.00
76238;PMS7003;65043;48.392;-4.472;2024-02-26T09:02:26;5.25;3.25;2.00
76238;PMS7003;65043;48.392;-4.472;2024-02-26T09:04:51;3.00;2.25;1.00
76238;PMS7003;65043;48.392;-4.472;2024-02-26T09:07:19;4.75;3.00;1.50
76238;PMS7003;65043;48.392;-4.472;2024-02-26T09:09:45;5.75;3.00;2.00
76238;PMS7003;65043;48.392;-4.472;2024-02-26T09:12:10;2.00;1.25;1.00
76238;PMS7003;65043;48.392;-4.472;2024-02-26T09:14:35;3.50;3.00;2.00
76238;PMS7003;65043;48.392;-4.472;2024-02-26T09:17:01;3.00;3.00;2.00
76238;PMS7003;65043;48.392;-4.472;2024-02-26T09:19:27;5.75;4.00;2.00
76238;PMS7003;65043;48.392;-4.472;2024-02-26T09:21:52;5.25;4.25;2.25
76238;PMS7003;65043;48.392;-4.472;2024-02-26T09:24:22;5.25;3.50;2.00
76238;PMS7003;65043;48.392;-4.472;2024-02-26T09:26:48;3.50;3.25;2.00
76238;PMS7003;65043;48.392;-4.472;2024-02-26T09:29:13;4.00;3.00;1.75
76238;PMS7003;65043;48.392;-4.472;2024-02-26T09:31:39;5.75;3.50;2.00
76238;PMS7003;65043;48.392;-4.472;2024-02-26T09:34:06;7.50;3.75;2.00
76238;PMS7003;65043;48.392;-4.472;2024-02-26T09:36:32;7.25;4.50;3.00
76238;PMS7003;65043;48.392;-4.472;2024-02-26T09:38:58;6.00;2.75;2.00
76238;PMS7003;65043;48.392;-4.472;2024-02-26T09:41:23;2.50;2.00;1.25
76238;PMS7003;65043;48.392;-4.472;2024-02-26T09:43:53;4.75;3.75;2.00
76238;PMS7003;65043;48.392;-4.472;2024-02-26T09:46:22;3.25;3.25;2.00
76238;PMS7003;65043;48.392;-4.472;2024-02-26T09:48:49;6.00;5.75;3.00
76238;PMS7003;65043;48.392;-4.472;2024-02-26T09:51:14;3.75;3.00;2.00
76238;PMS7003;65043;48.392;-4.472;2024-02-26T09:53:44;3.50;3.00;1.00
76238;PMS7003;65043;48.392;-4.472;2024-02-26T09:56:12;3.75;3.00;1.25
76238;PMS7003;65043;48.392;-4.472;2024-02-26T09:58:41;8.00;5.50;3.00
76238;PMS7003;65043;48.392;-4.472;2024-02-26T10:01:13;15.75;7.00;3.00
76238;PMS7003;65043;48.392;-4.472;2024-02-26T10:03:42;4.00;3.00;3.00
76238;PMS7003;65043;48.392;-4.472;2024-02-26T10:06:10;6.00;3.75;2.00
76238;PMS7003;65043;48.392;-4.472;2024-02-26T10:08:38;3.00;3.00;1.00
76238;PMS7003;65043;48.392;-4.472;2024-02-26T10:11:05;4.00;2.00;1.00
76238;PMS7003;65043;48.392;-4.472;2024-02-26T10:13:33;5.00;3.25;3.00
76238;PMS7003;65043;48.392;-4.472;2024-02-26T10:16:01;5.00;3.00;1.00
76238;PMS7003;65043;48.392;-4.472;2024-02-26T10:18:44;4.00;4.00;2.00
76238;PMS7003;65043;48.392;-4.472;2024-02-26T10:21:17;4.25;2.50;1.25
76238;PMS7003;65043;48.392;-4.472;2024-02-26T10:23:45;3.00;3.00;2.00
76238;PMS7003;65043;48.392;-4.472;2024-02-26T10:26:11;2.25;2.00;1.00
76238;PMS7003;65043;48.392;-4.472;2024-02-26T10:28:38;5.00;3.00;2.00
76238;PMS7003;65043;48.392;-4.472;2024-02-26T10:31:05;3.00;3.00;2.00
76238;PMS7003;65043;48.392;-4.472;2024-02-26T10:33:33;2.75;2.50;1.00
76238;PMS7003;65043;48.392;-4.472;2024-02-26T10:36:01;3.75;3.00;2.00
76238;PMS7003;65043;48.392;-4.472;2024-02-26T10:38:27;3.50;2.00;1.50
76238;PMS7003;65043;48.392;-4.472;2024-02-26T10:40:54;5.25;3.00;2.00
76238;PMS7003;65043;48.392;-4.472;2024-02-26T10:43:20;4.75;1.75;1.25
76238;PMS7003;65043;48.392;-4.472;2024-02-26T10:45:45;2.75;2.75;2.00
76238;PMS7003;65043;48.392;-4.472;2024-02-26T10:48:13;8.75;2.00;1.00
76238;PMS7003;65043;48.392;-4.472;2024-02-26T10:50:39;4.50;1.25;1.00
76238;PMS7003;65043;48.392;-4.472;2024-02-26T10:53:12;4.00;2.75;1.00
76238;PMS7003;65043;48.392;-4.472;2024-02-26T10:55:41;5.00;3.50;1.50
76238;PMS7003;65043;48.392;-4.472;2024-02-26T10:58:11;1.50;1.25;1.00
76238;PMS7003;65043;48.392;-4.472;2024-02-26T11:00:38;2.00;1.00;1.00
76238;PMS7003;65043;48.392;-4.472;2024-02-26T11:03:05;3.00;3.00;1.00
76238;PMS7003;65043;48.392;-4.472;2024-02-26T11:05:32;4.50;2.00;1.00
76238;PMS7003;65043;48.392;-4.472;2024-02-26T11:07:59;5.75;3.25;1.25
76238;PMS7003;65043;48.392;-4.472;2024-02-26T11:10:26;2.75;2.75;1.00
76238;PMS7003;65043;48.392;-4.472;2024-02-26T11:12:53;3.25;1.50;1.00
76238;PMS7003;65043;48.392;-4.472;2024-02-26T11:15:19;4.25;1.25;1.00
76238;PMS7003;65043;48.392;-4.472;2024-02-26T11:17:46;3.00;2.00;1.00
76238;PMS7003;65043;48.392;-4.472;2024-02-26T11:20:12;3.25;1.75;1.00
76238;PMS7003;65043;48.392;-4.472;2024-02-26T11:22:39;1.25;1.25;1.00
76238;PMS7003;65043;48.392;-4.472;2024-02-26T11:25:05;3.00;2.00;1.00
76238;PMS7003;65043;48.392;-4.472;2024-02-26T11:27:44;5.75;3.00;1.00
76238;PMS7003;65043;48.392;-4.472;2024-02-26T11:30:14;3.50;2.00;0.00
76238;PMS7003;65043;48.392;-4.472;2024-02-26T11:32:44;4.25;2.00;1.00
76238;PMS7003;65043;48.392;-4.472;2024-02-26T11:35:12;2.00;2.00;0.00
76238;PMS7003;65043;48.392;-4.472;2024-02-26T11:37:40;2.75;1.00;1.00
76238;PMS7003;65043;48.392;-4.472;2024-02-26T11:40:13;1.00;1.00;0.00
76238;PMS7003;65043;48.392;-4.472;2024-02-26T11:42:44;4.50;1.00;0.25
76238;PMS7003;65043;48.392;-4.472;2024-02-26T11:48:04;2.00;2.00;1.00
76238;PMS7003;65043;48.392;-4.472;2024-02-26T11:50:36;3.25;2.00;0.75
76238;PMS7003;65043;48.392;-4.472;2024-02-26T11:58:43;1.00;1.00;0.25
76238;PMS7003;65043;48.392;-4.472;2024-02-26T12:04:18;3.00;1.00;0.25
76238;PMS7003;65043;48.392;-4.472;2024-02-26T12:09:30;4.00;1.75;0.75
76238;PMS7003;65043;48.392;-4.472;2024-02-26T12:12:03;4.50;2.75;1.25
76238;PMS7003;65043;48.392;-4.472;2024-02-26T12:14:38;2.00;1.50;1.00
76238;PMS7003;65043;48.392;-4.472;2024-02-26T12:17:04;2.25;2.25;1.00
76238;PMS7003;65043;48.392;-4.472;2024-02-26T12:19:33;4.00;2.00;1.00
76238;PMS7003;65043;48.392;-4.472;2024-02-26T12:22:00;3.25;1.75;0.25
76238;PMS7003;65043;48.392;-4.472;2024-02-26T12:24:26;3.50;2.00;0.00
76238;PMS7003;65043;48.392;-4.472;2024-02-26T12:26:51;2.50;1.00;0.25
76238;PMS7003;65043;48.392;-4.472;2024-02-26T12:29:16;1.00;1.00;0.75
76238;PMS7003;65043;48.392;-4.472;2024-02-26T12:31:42;3.50;1.00;0.75
76238;PMS7003;65043;48.392;-4.472;2024-02-26T12:34:08;4.00;1.00;0.00
76238;PMS7003;65043;48.392;-4.472;2024-02-26T12:36:34;1.50;1.50;1.00
76238;PMS7003;65043;48.392;-4.472;2024-02-26T12:39:04;1.25;1.00;0.25
76238;PMS7003;65043;48.392;-4.472;2024-02-26T12:41:34;1.50;1.00;1.00
76238;PMS7003;65043;48.392;-4.472;2024-02-26T12:44:00;2.00;1.25;1.00
76238;PMS7003;65043;48.392;-4.472;2024-02-26T12:46:26;3.75;1.75;1.00
76238;PMS7003;65043;48.392;-4.472;2024-02-26T12:48:52;3.75;1.00;0.75
76238;PMS7003;65043;48.392;-4.472;2024-02-26T12:51:22;1.00;1.00;0.50
76238;PMS7003;65043;48.392;-4.472;2024-02-26T12:53:48;2.50;2.50;1.00
76238;PMS7003;65043;48.392;-4.472;2024-02-26T12:56:17;2.00;1.50;0.00
76238;PMS7003;65043;48.392;-4.472;2024-02-26T12:58:43;2.75;2.75;1.00
76238;PMS7003;65043;48.392;-4.472;2024-02-26T13:01:13;3.00;1.00;1.00
76238;PMS7003;65043;48.392;-4.472;2024-02-26T13:03:41;3.00;1.75;1.00
76238;PMS7003;65043;48.392;-4.472;2024-02-26T13:06:08;3.75;2.25;0.00
76238;PMS7003;65043;48.392;-4.472;2024-02-26T13:08:34;2.75;2.75;1.00
76238;PMS7003;65043;48.392;-4.472;2024-02-26T13:11:00;5.75;4.25;1.00
76238;PMS7003;65043;48.392;-4.472;2024-02-26T13:13:25;2.00;2.00;1.00
76238;PMS7003;65043;48.392;-4.472;2024-02-26T13:16:01;1.50;1.50;1.00
76238;PMS7003;65043;48.392;-4.472;2024-02-26T13:18:31;2.50;1.00;0.00
76238;PMS7003;65043;48.392;-4.472;2024-02-26T13:21:09;4.00;2.25;1.00
76238;PMS7003;65043;48.392;-4.472;2024-02-26T13:23:36;2.50;2.00;1.00
76238;PMS7003;65043;48.392;-4.472;2024-02-26T13:26:02;1.00;1.00;0.00
76238;PMS7003;65043;48.392;-4.472;2024-02-26T13:28:28;2.50;1.00;1.00
76238;PMS7003;65043;48.392;-4.472;2024-02-26T13:30:54;1.00;1.00;0.25
76238;PMS7003;65043;48.392;-4.472;2024-02-26T13:33:22;2.50;2.50;1.00
76238;PMS7003;65043;48.392;-4.472;2024-02-26T13:35:48;2.75;1.00;1.00
76238;PMS7003;65043;48.392;-4.472;2024-02-26T13:38:13;4.00;2.50;1.00
76238;PMS7003;65043;48.392;-4.472;2024-02-26T13:40:39;1.00;1.00;0.50
76238;PMS7003;65043;48.392;-4.472;2024-02-26T13:43:05;4.00;1.00;0.25
76238;PMS7003;65043;48.392;-4.472;2024-02-26T13:45:33;2.00;2.00;1.00
76238;PMS7003;65043;48.392;-4.472;2024-02-26T13:48:01;2.75;2.00;1.00
76238;PMS7003;65043;48.392;-4.472;2024-02-26T13:50:28;1.00;1.00;0.00
76238;PMS7003;65043;48.392;-4.472;2024-02-26T13:52:53;2.25;2.25;1.00
76238;PMS7003;65043;48.392;-4.472;2024-02-26T13:55:20;2.25;2.25;1.00
76238;PMS7003;65043;48.392;-4.472;2024-02-26T13:57:47;2.25;1.50;1.00
76238;PMS7003;65043;48.392;-4.472;2024-02-26T14:00:13;2.00;2.00;1.00
76238;PMS7003;65043;48.392;-4.472;2024-02-26T14:02:39;2.00;2.00;0.50
76238;PMS7003;65043;48.392;-4.472;2024-02-26T14:05:04;3.00;1.75;1.00
76238;PMS7003;65043;48.392;-4.472;2024-02-26T14:07:30;4.75;2.50;2.00
76238;PMS7003;65043;48.392;-4.472;2024-02-26T14:09:59;2.00;2.00;1.00
76238;PMS7003;65043;48.392;-4.472;2024-02-26T14:12:24;4.75;2.75;2.00
76238;PMS7003;65043;48.392;-4.472;2024-02-26T14:14:53;5.00;4.00;1.00
76238;PMS7003;65043;48.392;-4.472;2024-02-26T14:17:20;3.00;1.75;1.00
76238;PMS7003;65043;48.392;-4.472;2024-02-26T14:19:47;3.75;1.50;1.00